createdAt,value
2018-07-07T00:01:45.629Z,22.23
2018-07-07T00:04:13.502Z,22.21
2018-07-07T00:06:41.420Z,22.21
2018-07-07T00:09:09.356Z,22.21
2018-07-07T00:11:37.006Z,22.21
2018-07-07T00:14:04.692Z,22.20
2018-07-07T00:16:32.320Z,22.20
2018-07-07T00:19:00.215Z,22.19
2018-07-07T00:21:28.129Z,22.17
2018-07-07T00:23:55.790Z,22.18
2018-07-07T00:26:23.433Z,22.19
2018-07-07T00:28:51.102Z,22.18
2018-07-07T00:31:18.764Z,22.18
2018-07-07T00:33:46.725Z,22.17
2018-07-07T00:36:14.738Z,22.17
2018-07-07T00:38:42.734Z,22.17
2018-07-07T00:41:10.568Z,22.17
2018-07-07T00:43:38.293Z,22.17
2018-07-07T00:46:06.258Z,22.17
2018-07-07T00:48:33.903Z,22.16
2018-07-07T00:51:01.534Z,22.16
2018-07-07T00:53:30.154Z,22.15
2018-07-07T00:55:58.151Z,22.16
2018-07-07T00:58:26.054Z,22.14
2018-07-07T01:00:53.748Z,22.13
2018-07-07T01:03:22.098Z,22.12
2018-07-07T01:05:50.157Z,22.15
2018-07-07T01:08:18.355Z,22.13
2018-07-07T01:10:46.361Z,22.14
2018-07-07T01:13:15.043Z,22.12
2018-07-07T01:15:42.975Z,22.12
2018-07-07T01:18:10.633Z,22.10
2018-07-07T01:20:38.851Z,22.11
2018-07-07T01:23:06.512Z,22.09
2018-07-07T01:25:34.478Z,22.09
2018-07-07T01:28:02.399Z,22.11
2018-07-07T01:30:30.569Z,22.11
2018-07-07T01:32:58.597Z,22.10
2018-07-07T01:35:26.463Z,22.10
2018-07-07T01:37:54.657Z,22.11
2018-07-07T01:40:22.327Z,22.08
2018-07-07T01:42:49.982Z,22.08
2018-07-07T01:45:17.969Z,22.09
2018-07-07T01:47:45.653Z,22.10
2018-07-07T01:50:13.901Z,22.08
2018-07-07T01:52:41.837Z,22.08
2018-07-07T01:55:10.244Z,22.07
2018-07-07T01:57:37.942Z,22.07
2018-07-07T02:00:05.578Z,22.07
2018-07-07T02:02:33.434Z,22.06
2018-07-07T02:05:01.326Z,22.07
2018-07-07T02:07:28.982Z,22.06
2018-07-07T02:09:56.945Z,22.06
2018-07-07T02:12:24.664Z,22.06
2018-07-07T02:14:52.329Z,22.06
2018-07-07T02:17:19.954Z,22.06
2018-07-07T02:19:48.387Z,22.06
2018-07-07T02:22:22.849Z,22.05
2018-07-07T02:24:51.567Z,22.06
2018-07-07T02:27:19.732Z,22.05
2018-07-07T02:29:48.051Z,22.07
2018-07-07T02:32:15.751Z,22.07
2018-07-07T02:34:43.579Z,22.05
2018-07-07T02:37:11.405Z,22.06
2018-07-07T02:39:39.152Z,22.07
2018-07-07T02:42:07.035Z,22.07
2018-07-07T02:44:34.713Z,22.05
2018-07-07T02:47:02.910Z,22.04
2018-07-07T02:49:30.825Z,22.04
2018-07-07T02:51:58.463Z,22.05
2018-07-07T02:54:26.132Z,22.05
2018-07-07T02:56:53.773Z,22.05
2018-07-07T02:59:21.436Z,22.04
2018-07-07T03:01:49.159Z,22.03
2018-07-07T03:04:16.887Z,22.03
2018-07-07T03:06:44.549Z,22.04
2018-07-07T03:09:12.208Z,22.04
2018-07-07T03:11:40.148Z,22.04
2018-07-07T03:14:08.426Z,22.04
2018-07-07T03:16:36.384Z,22.04
2018-07-07T03:19:04.498Z,22.04
2018-07-07T03:21:32.650Z,22.04
2018-07-07T03:24:00.640Z,22.04
2018-07-07T03:26:28.731Z,22.04
2018-07-07T03:28:56.701Z,22.03
2018-07-07T03:31:24.341Z,22.05
2018-07-07T03:33:52.324Z,22.06
2018-07-07T03:36:20.220Z,22.06
2018-07-07T03:38:48.117Z,22.06
2018-07-07T03:41:15.850Z,22.06
2018-07-07T03:43:43.817Z,22.07
2018-07-07T03:46:11.441Z,22.08
2018-07-07T03:48:39.496Z,22.08
2018-07-07T03:51:07.148Z,22.09
2018-07-07T03:53:34.968Z,22.09
2018-07-07T03:56:03.252Z,22.10
2018-07-07T03:58:30.889Z,22.10
2018-07-07T04:00:58.895Z,22.11
2018-07-07T04:03:27.434Z,22.12
2018-07-07T04:05:55.061Z,22.15
2018-07-07T04:08:23.300Z,22.15
2018-07-07T04:10:51.111Z,22.15
2018-07-07T04:13:18.744Z,22.16
2018-07-07T04:15:47.447Z,22.16
2018-07-07T04:18:19.705Z,22.15
2018-07-07T04:20:47.717Z,22.15
2018-07-07T04:23:15.621Z,22.15
2018-07-07T04:25:43.687Z,22.16
2018-07-07T04:28:11.563Z,22.16
2018-07-07T04:30:39.433Z,22.15
2018-07-07T04:33:07.112Z,22.15
2018-07-07T04:35:34.758Z,22.15
2018-07-07T04:38:02.970Z,22.16
2018-07-07T04:40:30.641Z,22.16
2018-07-07T04:42:58.267Z,22.17
2018-07-07T04:45:25.902Z,22.16
2018-07-07T04:47:53.921Z,22.17
2018-07-07T04:50:22.198Z,22.17
2018-07-07T04:52:50.525Z,22.18
2018-07-07T04:55:18.969Z,22.18
2018-07-07T04:57:46.918Z,22.19
2018-07-07T05:00:14.629Z,22.19
2018-07-07T05:02:42.912Z,22.19
2018-07-07T05:05:10.595Z,22.18
2018-07-07T05:07:38.576Z,22.18
2018-07-07T05:10:06.279Z,22.20
2018-07-07T05:12:33.909Z,22.21
2018-07-07T05:15:02.041Z,22.22
2018-07-07T05:17:29.689Z,22.23
2018-07-07T05:19:57.330Z,22.22
2018-07-07T05:22:24.957Z,22.21
2018-07-07T05:24:52.571Z,22.22
2018-07-07T05:27:21.257Z,22.24
2018-07-07T05:29:48.898Z,22.26
2018-07-07T05:32:16.914Z,22.27
2018-07-07T05:34:45.023Z,22.29
2018-07-07T05:37:12.688Z,22.33
2018-07-07T05:39:40.917Z,22.33
2018-07-07T05:42:08.620Z,22.30
2018-07-07T05:44:36.541Z,22.30
2018-07-07T05:47:04.882Z,22.30
2018-07-07T05:49:32.753Z,22.32
2018-07-07T05:52:00.402Z,22.35
2018-07-07T05:54:28.656Z,22.34
2018-07-07T05:56:56.430Z,22.36
2018-07-07T05:59:24.283Z,22.41
2018-07-07T06:01:52.226Z,22.47
2018-07-07T06:04:20.164Z,22.50
2018-07-07T06:06:47.828Z,22.51
2018-07-07T06:09:15.869Z,22.48
2018-07-07T06:11:43.768Z,22.45
2018-07-07T06:14:11.673Z,22.41
2018-07-07T06:16:39.366Z,22.36
2018-07-07T06:19:07.445Z,22.38
2018-07-07T06:21:35.087Z,22.41
2018-07-07T06:24:03.090Z,22.47
2018-07-07T06:26:30.792Z,22.50
2018-07-07T06:28:58.494Z,22.54
2018-07-07T06:31:26.775Z,22.56
2018-07-07T06:33:54.675Z,22.56
2018-07-07T06:36:22.568Z,22.55
2018-07-07T06:38:50.539Z,22.55
2018-07-07T06:41:18.177Z,22.53
2018-07-07T06:43:45.912Z,22.52
2018-07-07T06:46:13.936Z,22.50
2018-07-07T06:48:41.593Z,22.48
2018-07-07T06:51:09.488Z,22.49
2018-07-07T06:53:37.174Z,22.50
2018-07-07T06:56:05.464Z,22.50
2018-07-07T06:58:33.374Z,22.50
2018-07-07T07:01:01.249Z,22.49
2018-07-07T07:03:29.167Z,22.51
2018-07-07T07:05:57.221Z,22.57
2018-07-07T07:08:25.095Z,22.63
2018-07-07T07:10:52.841Z,22.62
2018-07-07T07:13:21.296Z,22.57
2018-07-07T07:15:48.928Z,22.56
2018-07-07T07:18:16.778Z,22.57
2018-07-07T07:20:44.536Z,22.61
2018-07-07T07:23:12.169Z,22.57
2018-07-07T07:25:40.150Z,22.55
2018-07-07T07:28:08.110Z,22.58
2018-07-07T07:30:35.716Z,22.66
2018-07-07T07:33:03.700Z,22.74
2018-07-07T07:35:31.326Z,22.74
2018-07-07T07:37:58.995Z,22.70
2018-07-07T07:40:26.932Z,22.66
2018-07-07T07:42:55.247Z,22.63
2018-07-07T07:45:23.136Z,22.61
2018-07-07T07:47:50.792Z,22.68
2018-07-07T07:50:18.458Z,22.68
2018-07-07T07:52:46.187Z,22.65
2018-07-07T07:55:13.829Z,22.67
2018-07-07T07:57:41.447Z,22.71
2018-07-07T08:00:09.690Z,22.75
2018-07-07T08:02:38.004Z,22.74
2018-07-07T08:05:06.025Z,22.77
2018-07-07T08:07:34.078Z,22.81
2018-07-07T08:10:01.718Z,22.80
2018-07-07T08:12:29.832Z,22.82
2018-07-07T08:14:57.476Z,22.80
2018-07-07T08:17:25.102Z,22.80
2018-07-07T08:19:53.084Z,22.80
2018-07-07T08:22:20.985Z,22.83
2018-07-07T08:24:48.909Z,22.82
2018-07-07T08:27:16.568Z,22.82
2018-07-07T08:29:44.737Z,22.90
2018-07-07T08:32:12.377Z,22.93
2018-07-07T08:34:40.031Z,22.98
2018-07-07T08:37:07.918Z,23.01
2018-07-07T08:39:35.549Z,23.02
2018-07-07T08:42:03.202Z,22.98
2018-07-07T08:44:31.222Z,22.99
2018-07-07T08:46:58.850Z,22.98
2018-07-07T08:49:27.045Z,22.98
2018-07-07T08:51:54.678Z,23.08
2018-07-07T08:54:22.896Z,23.08
2018-07-07T08:56:50.855Z,23.06
2018-07-07T08:59:18.486Z,23.03
2018-07-07T09:01:46.381Z,22.96
2018-07-07T09:04:14.109Z,23.00
2018-07-07T09:06:41.728Z,23.07
2018-07-07T09:09:09.836Z,23.04
2018-07-07T09:11:37.707Z,23.03
2018-07-07T09:14:05.804Z,23.08
2018-07-07T09:16:33.447Z,23.08
2018-07-07T09:19:01.094Z,23.15
2018-07-07T09:21:29.150Z,23.16
2018-07-07T09:23:57.285Z,23.23
2018-07-07T09:26:24.919Z,23.20
2018-07-07T09:28:52.946Z,23.07
2018-07-07T09:31:20.806Z,23.03
2018-07-07T09:33:48.445Z,23.08
2018-07-07T09:36:16.389Z,23.13
2018-07-07T09:38:44.567Z,23.14
2018-07-07T09:41:12.860Z,23.14
2018-07-07T09:43:40.994Z,23.20
2018-07-07T09:46:08.705Z,23.30
2018-07-07T09:48:36.440Z,23.26
2018-07-07T09:51:04.355Z,23.20
2018-07-07T09:53:31.958Z,23.14
2018-07-07T09:55:59.654Z,23.20
2018-07-07T09:58:27.321Z,23.26
2018-07-07T10:00:55.292Z,23.23
2018-07-07T10:03:22.951Z,23.23
2018-07-07T10:05:50.566Z,23.22
2018-07-07T10:08:18.556Z,23.18
2018-07-07T10:10:46.534Z,23.19
2018-07-07T10:13:14.480Z,23.20
2018-07-07T10:15:42.250Z,23.23
2018-07-07T10:18:10.558Z,23.28
2018-07-07T10:20:38.203Z,23.28
2018-07-07T10:23:06.285Z,23.30
2018-07-07T10:25:34.713Z,23.31
2018-07-07T10:28:02.342Z,23.31
2018-07-07T10:30:30.226Z,23.31
2018-07-07T10:32:58.382Z,23.37
2018-07-07T10:35:26.078Z,23.37
2018-07-07T10:37:53.740Z,23.41
2018-07-07T10:40:21.665Z,23.44
2018-07-07T10:42:49.314Z,23.42
2018-07-07T10:45:17.029Z,23.44
2018-07-07T10:47:45.213Z,23.44
2018-07-07T10:50:12.872Z,23.44
2018-07-07T10:52:40.806Z,23.49
2018-07-07T10:55:08.772Z,23.50
2018-07-07T10:57:36.728Z,23.56
2018-07-07T11:00:05.250Z,23.55
2018-07-07T11:02:33.187Z,23.50
2018-07-07T11:05:01.489Z,23.53
2018-07-07T11:07:29.437Z,23.56
2018-07-07T11:09:57.407Z,23.54
2018-07-07T11:12:25.341Z,23.54
2018-07-07T11:14:53.228Z,23.53
2018-07-07T11:17:20.916Z,23.55
2018-07-07T11:19:48.927Z,23.58
2018-07-07T11:22:16.578Z,23.62
2018-07-07T11:24:44.271Z,23.65
2018-07-07T11:27:12.581Z,23.67
2018-07-07T11:29:40.206Z,23.72
2018-07-07T11:32:07.866Z,23.75
2018-07-07T11:34:35.860Z,23.79
2018-07-07T11:37:03.510Z,23.77
2018-07-07T11:39:31.821Z,23.81
2018-07-07T11:41:59.512Z,23.80
2018-07-07T11:44:27.402Z,23.86
2018-07-07T11:46:55.188Z,23.87
2018-07-07T11:49:23.704Z,23.86
2018-07-07T11:51:51.326Z,23.87
2018-07-07T11:54:19.249Z,23.90
2018-07-07T11:56:47.464Z,23.92
2018-07-07T11:59:15.098Z,23.93
2018-07-07T12:01:42.968Z,23.96
2018-07-07T12:04:10.870Z,23.97
2018-07-07T12:06:38.561Z,23.93
2018-07-07T12:09:06.841Z,23.89
2018-07-07T12:11:34.457Z,23.90
2018-07-07T12:14:02.124Z,23.92
2018-07-07T12:16:30.015Z,23.93
2018-07-07T12:18:57.922Z,23.94
2018-07-07T12:21:25.577Z,23.98
2018-07-07T12:23:53.228Z,24.00
2018-07-07T12:26:20.850Z,24.03
2018-07-07T12:28:48.788Z,24.04
2018-07-07T12:31:16.495Z,24.07
2018-07-07T12:33:44.449Z,24.10
2018-07-07T12:36:12.190Z,24.11
2018-07-07T12:38:39.807Z,24.06
2018-07-07T12:41:07.465Z,24.06
2018-07-07T12:43:35.103Z,24.08
2018-07-07T12:46:02.740Z,24.10
2018-07-07T12:48:30.609Z,24.08
2018-07-07T12:50:58.224Z,24.07
2018-07-07T12:53:25.880Z,24.12
2018-07-07T12:55:53.497Z,24.10
2018-07-07T12:58:21.407Z,24.14
2018-07-07T13:00:49.416Z,24.14
2018-07-07T13:03:17.257Z,24.16
2018-07-07T13:05:45.182Z,24.18
2018-07-07T13:08:12.855Z,24.21
2018-07-07T13:10:40.754Z,24.24
2018-07-07T13:13:08.373Z,24.27
2018-07-07T13:15:36.132Z,24.31
2018-07-07T13:18:04.102Z,24.33
2018-07-07T13:20:31.789Z,24.33
2018-07-07T13:22:59.466Z,24.33
2018-07-07T13:25:27.128Z,24.39
2018-07-07T13:27:54.727Z,24.35
2018-07-07T13:30:23.001Z,24.41
2018-07-07T13:32:50.993Z,24.39
2018-07-07T13:35:18.859Z,24.40
2018-07-07T13:37:46.862Z,24.41
2018-07-07T13:40:14.933Z,24.42
2018-07-07T13:42:42.538Z,24.46
2018-07-07T13:45:10.133Z,24.48
2018-07-07T13:47:38.236Z,24.49
2018-07-07T13:50:06.662Z,24.52
2018-07-07T13:52:34.301Z,24.54
2018-07-07T13:55:02.301Z,24.52
2018-07-07T13:57:30.273Z,24.53
2018-07-07T13:59:58.144Z,24.57
2018-07-07T14:02:26.129Z,24.58
2018-07-07T14:04:53.977Z,24.61
2018-07-07T14:07:21.956Z,24.65
2018-07-07T14:09:49.810Z,24.68
2018-07-07T14:12:17.413Z,24.67
2018-07-07T14:14:45.279Z,24.71
2018-07-07T14:17:12.970Z,24.70
2018-07-07T14:19:41.109Z,24.71
2018-07-07T14:22:09.037Z,24.69
2018-07-07T14:24:36.665Z,24.76
2018-07-07T14:27:04.361Z,24.87
2018-07-07T14:29:31.985Z,25.06
2018-07-07T14:31:59.631Z,25.24
2018-07-07T14:34:27.675Z,25.71
2018-07-07T14:36:55.440Z,26.44
2018-07-07T14:39:25.124Z,26.96
2018-07-07T14:42:01.596Z,27.76
2018-07-07T14:44:29.562Z,27.44
2018-07-07T14:46:57.196Z,27.09
2018-07-07T14:49:25.141Z,27.61
2018-07-07T14:51:53.364Z,27.84
2018-07-07T14:54:21.237Z,27.87
2018-07-07T14:56:49.272Z,27.90
2018-07-07T14:59:16.882Z,28.34
2018-07-07T15:01:44.742Z,27.57
2018-07-07T15:04:12.776Z,26.84
2018-07-07T15:06:40.375Z,26.26
2018-07-07T15:09:08.205Z,26.03
2018-07-07T15:11:35.890Z,25.69
2018-07-07T15:14:03.749Z,25.48
2018-07-07T15:16:31.661Z,25.35
2018-07-07T15:18:59.309Z,25.29
2018-07-07T15:21:27.322Z,25.23
2018-07-07T15:23:55.152Z,25.23
2018-07-07T15:26:23.021Z,25.41
2018-07-07T15:28:51.263Z,25.46
2018-07-07T15:31:19.245Z,25.38
2018-07-07T15:33:47.166Z,25.50
2018-07-07T15:36:15.217Z,25.47
2018-07-07T15:38:42.814Z,25.38
2018-07-07T15:41:10.706Z,25.32
2018-07-07T15:43:38.733Z,25.24
2018-07-07T15:46:06.353Z,25.22
2018-07-07T15:48:34.209Z,25.21
2018-07-07T15:51:01.889Z,25.25
2018-07-07T15:53:29.724Z,25.27
2018-07-07T15:55:57.453Z,25.29
2018-07-07T15:58:25.038Z,25.28
2018-07-07T16:00:53.017Z,25.33
2018-07-07T16:03:21.353Z,25.35
2018-07-07T16:05:49.062Z,25.46
2018-07-07T16:08:17.011Z,25.51
2018-07-07T16:10:44.785Z,25.61
2018-07-07T16:13:12.668Z,25.73
2018-07-07T16:15:40.598Z,25.57
2018-07-07T16:18:08.516Z,25.59
2018-07-07T16:20:36.242Z,25.69
2018-07-07T16:23:04.197Z,25.73
2018-07-07T16:25:31.958Z,25.65
2018-07-07T16:27:59.548Z,25.72
2018-07-07T16:30:27.494Z,25.85
2018-07-07T16:32:55.387Z,25.87
2018-07-07T16:35:22.977Z,25.93
2018-07-07T16:37:51.011Z,25.92
2018-07-07T16:40:18.855Z,25.88
2018-07-07T16:42:47.174Z,25.88
2018-07-07T16:45:15.049Z,25.89
2018-07-07T16:47:42.993Z,25.92
2018-07-07T16:50:11.605Z,26.13
2018-07-07T16:52:39.856Z,26.21
2018-07-07T16:55:07.724Z,26.30
2018-07-07T16:57:35.737Z,26.29
2018-07-07T17:00:03.327Z,26.34
2018-07-07T17:02:30.934Z,26.65
2018-07-07T17:04:58.682Z,26.87
2018-07-07T17:07:26.322Z,26.83
2018-07-07T17:09:54.354Z,26.60
2018-07-07T17:12:22.836Z,26.86
2018-07-07T17:14:50.747Z,26.92
2018-07-07T17:17:18.353Z,26.84
2018-07-07T17:19:47.011Z,26.67
2018-07-07T17:22:14.705Z,26.46
2018-07-07T17:24:43.184Z,26.33
2018-07-07T17:27:11.419Z,26.38
2018-07-07T17:29:39.287Z,26.49
2018-07-07T17:32:08.354Z,26.49
2018-07-07T17:34:36.202Z,26.59
2018-07-07T17:37:04.574Z,26.38
2018-07-07T17:39:32.480Z,26.65
2018-07-07T17:42:00.156Z,26.84
2018-07-07T17:44:27.782Z,26.67
2018-07-07T17:46:55.996Z,26.64
2018-07-07T17:49:24.181Z,26.77
2018-07-07T17:51:51.904Z,26.92
2018-07-07T17:54:20.006Z,26.84
2018-07-07T17:56:48.510Z,26.47
2018-07-07T17:59:16.173Z,26.45
2018-07-07T18:01:43.768Z,26.71
2018-07-07T18:04:11.385Z,26.73
2018-07-07T18:06:39.148Z,26.74
2018-07-07T18:09:07.058Z,26.86
2018-07-07T18:11:34.956Z,26.96
2018-07-07T18:14:02.997Z,26.98
2018-07-07T18:16:30.676Z,26.77
2018-07-07T18:18:58.280Z,26.57
2018-07-07T18:21:26.138Z,26.32
2018-07-07T18:23:53.982Z,26.23
2018-07-07T18:26:23.067Z,26.21
2018-07-07T18:28:51.796Z,26.21
2018-07-07T18:31:19.680Z,26.01
2018-07-07T18:33:48.023Z,25.92
2018-07-07T18:36:15.660Z,25.89
2018-07-07T18:38:43.306Z,25.88
2018-07-07T18:41:11.370Z,25.73
2018-07-07T18:43:38.980Z,25.63
2018-07-07T18:46:07.316Z,25.51
2018-07-07T18:48:35.560Z,25.43
2018-07-07T18:51:03.167Z,25.34
2018-07-07T18:53:30.778Z,25.28
2018-07-07T18:55:58.701Z,25.21
2018-07-07T18:58:26.578Z,25.13
2018-07-07T19:00:54.248Z,25.07
2018-07-07T19:03:21.872Z,25.02
2018-07-07T19:05:50.085Z,24.99
2018-07-07T19:08:18.914Z,24.95
2018-07-07T19:10:47.014Z,24.93
2018-07-07T19:13:14.665Z,24.93
2018-07-07T19:15:46.624Z,24.81
2018-07-07T19:18:15.101Z,24.68
2018-07-07T19:20:48.693Z,24.57
2018-07-07T19:23:21.821Z,24.51
2018-07-07T19:25:55.125Z,24.42
2018-07-07T19:28:22.959Z,24.34
2018-07-07T19:30:50.567Z,24.29
2018-07-07T19:33:25.002Z,24.24
2018-07-07T19:35:58.153Z,24.15
2018-07-07T19:38:26.385Z,24.11
2018-07-07T19:40:54.109Z,24.05
2018-07-07T19:43:21.711Z,24.00
2018-07-07T19:45:49.360Z,23.94
2018-07-07T19:48:16.954Z,23.89
2018-07-07T19:50:45.297Z,23.86
2018-07-07T19:53:12.932Z,23.81
2018-07-07T19:55:40.819Z,23.76
2018-07-07T19:58:09.004Z,23.71
2018-07-07T20:00:36.609Z,23.68
2018-07-07T20:03:04.254Z,23.64
2018-07-07T20:05:32.527Z,23.61
2018-07-07T20:08:00.141Z,23.58
2018-07-07T20:10:27.785Z,23.55
2018-07-07T20:12:55.860Z,23.52
2018-07-07T20:15:35.341Z,23.49
2018-07-07T20:18:06.848Z,23.46
2018-07-07T20:20:39.940Z,23.44
2018-07-07T20:25:36.802Z,23.36
2018-07-07T20:28:10.423Z,23.33
2018-07-07T20:30:38.028Z,23.31
2018-07-07T20:33:06.298Z,23.29
2018-07-07T20:35:33.893Z,23.25
2018-07-07T20:38:01.876Z,23.23
2018-07-07T20:40:29.646Z,23.21
2018-07-07T20:42:57.391Z,23.20
2018-07-07T20:45:25.097Z,23.17
2018-07-07T20:47:53.203Z,23.15
2018-07-07T20:50:20.884Z,23.13
2018-07-07T20:52:48.746Z,23.11
2018-07-07T20:55:16.502Z,23.07
2018-07-07T20:57:44.532Z,23.08
2018-07-07T21:00:12.167Z,23.05
2018-07-07T21:02:40.462Z,23.04
2018-07-07T21:05:08.409Z,23.01
2018-07-07T21:07:36.346Z,23.01
2018-07-07T21:10:04.335Z,23.00
2018-07-07T21:12:32.087Z,22.99
2018-07-07T21:15:00.135Z,22.99
2018-07-07T21:17:28.803Z,22.97
2018-07-07T21:19:57.016Z,22.96
2018-07-07T21:22:24.681Z,22.94
2018-07-07T21:24:52.309Z,22.93
2018-07-07T21:27:20.038Z,22.92
2018-07-07T21:29:47.921Z,22.90
2018-07-07T21:32:15.679Z,22.89
2018-07-07T21:34:43.613Z,22.88
2018-07-07T21:37:11.473Z,22.87
2018-07-07T21:39:39.390Z,22.86
2018-07-07T21:42:07.011Z,22.86
2018-07-07T21:44:34.639Z,22.86
2018-07-07T21:47:02.290Z,22.85
2018-07-07T21:49:29.933Z,22.83
2018-07-07T21:51:57.537Z,22.81
2018-07-07T21:54:25.794Z,22.80
2018-07-07T21:56:54.208Z,22.80
2018-07-07T21:59:22.281Z,22.79
2018-07-07T22:01:58.357Z,22.77
2018-07-07T22:04:32.350Z,22.75
2018-07-07T22:07:06.209Z,22.74
2018-07-07T22:09:34.666Z,22.74
2018-07-07T22:12:02.338Z,22.71
2018-07-07T22:14:30.605Z,22.72
2018-07-07T22:16:58.541Z,22.71
2018-07-07T22:19:26.809Z,22.70
2018-07-07T22:22:03.105Z,22.68
2018-07-07T22:24:30.709Z,22.67
2018-07-07T22:27:01.700Z,22.66
2018-07-07T22:29:29.362Z,22.65
2018-07-07T22:31:58.314Z,22.65
2018-07-07T22:34:31.116Z,22.63
2018-07-07T22:36:58.834Z,22.63
2018-07-07T22:39:26.466Z,22.61
2018-07-07T22:41:57.272Z,22.62
2018-07-07T22:44:25.175Z,22.59
2018-07-07T22:46:53.491Z,22.59
2018-07-07T22:49:21.155Z,22.58
2018-07-07T22:51:48.839Z,22.58
2018-07-07T22:54:16.978Z,22.58
2018-07-07T22:56:44.882Z,22.57
2018-07-07T22:59:13.105Z,22.55
2018-07-07T23:01:41.265Z,22.56
2018-07-07T23:04:09.376Z,22.54
2018-07-07T23:06:40.181Z,22.55
2018-07-07T23:09:10.137Z,22.53
2018-07-07T23:11:38.174Z,22.53
2018-07-07T23:14:06.121Z,22.51
2018-07-07T23:16:33.766Z,22.50
2018-07-07T23:19:02.699Z,22.49
2018-07-07T23:21:30.740Z,22.48
2018-07-07T23:23:58.396Z,22.47
2018-07-07T23:26:26.677Z,22.46
2018-07-07T23:28:54.315Z,22.46
2018-07-07T23:31:22.228Z,22.45
2018-07-07T23:33:50.813Z,22.46
2018-07-07T23:36:18.769Z,22.44
2018-07-07T23:38:46.950Z,22.45
2018-07-07T23:41:14.709Z,22.43
2018-07-07T23:43:42.332Z,22.42
2018-07-07T23:46:10.613Z,22.41
2018-07-07T23:48:38.806Z,22.41
2018-07-07T23:51:07.187Z,22.40
2018-07-07T23:53:34.841Z,22.39
2018-07-07T23:56:02.817Z,22.39
2018-07-07T23:58:30.661Z,22.39
